sensor_id;sensor_type;location;lat;lon;timestamp;temperature;humidity
18894;DHT22;9579;49.488;8.226;2022-09-13T05:01:10;17.00;99.90
18894;DHT22;9579;49.488;8.226;2022-09-13T05:03:57;17.00;99.90
18894;DHT22;9579;49.488;8.226;2022-09-13T05:06:44;17.00;99.90
18894;DHT22;9579;49.488;8.226;2022-09-13T05:09:32;17.00;99.90
18894;DHT22;9579;49.488;8.226;2022-09-13T05:12:19;17.10;99.90
18894;DHT22;9579;49.488;8.226;2022-09-13T05:15:07;17.10;99.90
18894;DHT22;9579;49.488;8.226;2022-09-13T05:17:56;17.10;99.90
18894;DHT22;9579;49.488;8.226;2022-09-13T05:20:43;17.20;99.90
18894;DHT22;9579;49.488;8.226;2022-09-13T05:23:31;17.20;99.90
18894;DHT22;9579;49.488;8.226;2022-09-13T05:26:20;17.20;99.90
18894;DHT22;9579;49.488;8.226;2022-09-13T05:29:07;17.30;99.90
18894;DHT22;9579;49.488;8.226;2022-09-13T05:31:54;17.30;99.90
18894;DHT22;9579;49.488;8.226;2022-09-13T05:34:43;17.30;99.90
18894;DHT22;9579;49.488;8.226;2022-09-13T05:37:30;17.30;99.90
18894;DHT22;9579;49.488;8.226;2022-09-13T05:40:17;17.40;99.90
18894;DHT22;9579;49.488;8.226;2022-09-13T05:43:04;17.50;99.90
18894;DHT22;9579;49.488;8.226;2022-09-13T05:45:51;17.60;99.90
18894;DHT22;9579;49.488;8.226;2022-09-13T05:48:46;17.60;99.90
18894;DHT22;9579;49.488;8.226;2022-09-13T05:51:35;17.70;99.90
18894;DHT22;9579;49.488;8.226;2022-09-13T05:54:22;17.70;99.90
18894;DHT22;9579;49.488;8.226;2022-09-13T05:57:09;17.80;99.90
18894;DHT22;9579;49.488;8.226;2022-09-13T05:59:56;17.80;99.90
18894;DHT22;9579;49.488;8.226;2022-09-13T06:02:43;17.80;99.90
18894;DHT22;9579;49.488;8.226;2022-09-13T06:05:30;17.90;99.90
18894;DHT22;9579;49.488;8.226;2022-09-13T06:08:18;17.90;99.90
18894;DHT22;9579;49.488;8.226;2022-09-13T06:11:07;18.10;99.90
18894;DHT22;9579;49.488;8.226;2022-09-13T06:13:54;17.90;99.90
18894;DHT22;9579;49.488;8.226;2022-09-13T06:16:41;18.00;99.90
18894;DHT22;9579;49.488;8.226;2022-09-13T06:19:28;18.00;99.90
18894;DHT22;9579;49.488;8.226;2022-09-13T06:22:15;18.10;99.90
18894;DHT22;9579;49.488;8.226;2022-09-13T06:25:04;18.10;99.90
18894;DHT22;9579;49.488;8.226;2022-09-13T06:27:52;18.20;99.90
18894;DHT22;9579;49.488;8.226;2022-09-13T06:30:39;18.20;99.90
18894;DHT22;9579;49.488;8.226;2022-09-13T06:33:26;18.30;99.90
18894;DHT22;9579;49.488;8.226;2022-09-13T06:36:14;18.30;99.90
18894;DHT22;9579;49.488;8.226;2022-09-13T06:39:02;18.40;99.90
18894;DHT22;9579;49.488;8.226;2022-09-13T06:41:52;18.40;99.90
18894;DHT22;9579;49.488;8.226;2022-09-13T06:44:39;18.40;99.90
18894;DHT22;9579;49.488;8.226;2022-09-13T06:47:26;18.50;99.90
18894;DHT22;9579;49.488;8.226;2022-09-13T06:50:13;18.50;99.90
18894;DHT22;9579;49.488;8.226;2022-09-13T06:53:00;18.50;99.90
18894;DHT22;9579;49.488;8.226;2022-09-13T06:55:48;18.60;99.90
18894;DHT22;9579;49.488;8.226;2022-09-13T06:58:37;18.60;99.90
18894;DHT22;9579;49.488;8.226;2022-09-13T07:01:26;18.70;99.90
18894;DHT22;9579;49.488;8.226;2022-09-13T07:04:15;18.70;99.90
18894;DHT22;9579;49.488;8.226;2022-09-13T07:07:04;18.80;99.90
18894;DHT22;9579;49.488;8.226;2022-09-13T07:09:51;18.70;99.90
18894;DHT22;9579;49.488;8.226;2022-09-13T07:12:39;18.80;99.90
18894;DHT22;9579;49.488;8.226;2022-09-13T07:15:28;18.90;99.90
18894;DHT22;9579;49.488;8.226;2022-09-13T07:18:15;19.00;99.90
18894;DHT22;9579;49.488;8.226;2022-09-13T07:21:04;19.10;99.90
18894;DHT22;9579;49.488;8.226;2022-09-13T07:23:52;19.20;99.90
18894;DHT22;9579;49.488;8.226;2022-09-13T07:26:40;19.30;99.90
18894;DHT22;9579;49.488;8.226;2022-09-13T07:29:27;19.50;99.90
18894;DHT22;9579;49.488;8.226;2022-09-13T07:32:15;19.70;99.90
18894;DHT22;9579;49.488;8.226;2022-09-13T07:35:03;19.90;99.90
18894;DHT22;9579;49.488;8.226;2022-09-13T07:37:51;20.10;99.90
18894;DHT22;9579;49.488;8.226;2022-09-13T07:40:38;20.30;99.90
18894;DHT22;9579;49.488;8.226;2022-09-13T07:43:25;20.50;99.90
18894;DHT22;9579;49.488;8.226;2022-09-13T07:46:14;20.50;99.90
18894;DHT22;9579;49.488;8.226;2022-09-13T07:49:04;20.50;99.90
18894;DHT22;9579;49.488;8.226;2022-09-13T07:51:51;20.40;99.90
18894;DHT22;9579;49.488;8.226;2022-09-13T07:54:38;20.30;99.90
18894;DHT22;9579;49.488;8.226;2022-09-13T07:57:26;20.30;99.90
18894;DHT22;9579;49.488;8.226;2022-09-13T08:00:13;20.10;99.90
18894;DHT22;9579;49.488;8.226;2022-09-13T08:03:01;20.00;99.90
18894;DHT22;9579;49.488;8.226;2022-09-13T08:05:50;20.10;99.90
18894;DHT22;9579;49.488;8.226;2022-09-13T08:08:37;20.20;99.90
18894;DHT22;9579;49.488;8.226;2022-09-13T08:11:25;20.40;99.90
18894;DHT22;9579;49.488;8.226;2022-09-13T08:14:14;20.50;99.90
18894;DHT22;9579;49.488;8.226;2022-09-13T08:17:02;20.70;99.90
18894;DHT22;9579;49.488;8.226;2022-09-13T08:19:49;20.70;99.90
18894;DHT22;9579;49.488;8.226;2022-09-13T08:22:37;20.80;99.90
18894;DHT22;9579;49.488;8.226;2022-09-13T08:25:24;20.70;99.90
18894;DHT22;9579;49.488;8.226;2022-09-13T08:28:14;20.70;99.90
18894;DHT22;9579;49.488;8.226;2022-09-13T08:31:03;20.80;99.90
18894;DHT22;9579;49.488;8.226;2022-09-13T08:33:50;20.90;99.90
18894;DHT22;9579;49.488;8.226;2022-09-13T08:36:38;20.90;99.90
18894;DHT22;9579;49.488;8.226;2022-09-13T08:39:27;21.00;99.90
18894;DHT22;9579;49.488;8.226;2022-09-13T08:42:27;20.90;99.90
18894;DHT22;9579;49.488;8.226;2022-09-13T08:45:16;21.00;99.90
18894;DHT22;9579;49.488;8.226;2022-09-13T08:48:09;21.20;99.90
18894;DHT22;9579;49.488;8.226;2022-09-13T08:51:03;21.30;99.90
18894;DHT22;9579;49.488;8.226;2022-09-13T08:53:52;21.60;99.90
18894;DHT22;9579;49.488;8.226;2022-09-13T08:56:45;21.70;99.90
18894;DHT22;9579;49.488;8.226;2022-09-13T08:59:43;21.80;99.90
18894;DHT22;9579;49.488;8.226;2022-09-13T09:02:53;22.00;99.90
18894;DHT22;9579;49.488;8.226;2022-09-13T09:05:45;22.20;99.90
18894;DHT22;9579;49.488;8.226;2022-09-13T09:08:39;22.40;99.90
18894;DHT22;9579;49.488;8.226;2022-09-13T09:11:33;22.70;99.90
18894;DHT22;9579;49.488;8.226;2022-09-13T09:14:28;22.90;99.90
18894;DHT22;9579;49.488;8.226;2022-09-13T09:17:19;23.10;99.90
18894;DHT22;9579;49.488;8.226;2022-09-13T09:20:17;23.40;99.90
18894;DHT22;9579;49.488;8.226;2022-09-13T09:23:15;23.60;99.90
18894;DHT22;9579;49.488;8.226;2022-09-13T09:26:14;23.60;99.90
18894;DHT22;9579;49.488;8.226;2022-09-13T09:29:08;23.90;99.90
18894;DHT22;9579;49.488;8.226;2022-09-13T09:32:07;24.00;99.90
18894;DHT22;9579;49.488;8.226;2022-09-13T09:35:11;24.10;99.90
18894;DHT22;9579;49.488;8.226;2022-09-13T09:38:22;24.20;99.50
18894;DHT22;9579;49.488;8.226;2022-09-13T09:41:22;24.30;99.40
18894;DHT22;9579;49.488;8.226;2022-09-13T09:44:16;24.50;99.50
18894;DHT22;9579;49.488;8.226;2022-09-13T09:47:11;24.50;99.40
18894;DHT22;9579;49.488;8.226;2022-09-13T09:50:03;24.50;99.80
18894;DHT22;9579;49.488;8.226;2022-09-13T09:53:00;24.60;99.50
18894;DHT22;9579;49.488;8.226;2022-09-13T09:55:51;24.80;99.10
18894;DHT22;9579;49.488;8.226;2022-09-13T09:58:43;24.70;98.40
18894;DHT22;9579;49.488;8.226;2022-09-13T10:01:33;24.60;98.70
18894;DHT22;9579;49.488;8.226;2022-09-13T10:04:22;24.60;99.20
18894;DHT22;9579;49.488;8.226;2022-09-13T10:07:21;24.70;99.00
18894;DHT22;9579;49.488;8.226;2022-09-13T10:10:21;24.70;98.10
18894;DHT22;9579;49.488;8.226;2022-09-13T10:13:14;24.60;98.60
18894;DHT22;9579;49.488;8.226;2022-09-13T10:16:03;24.60;98.40
18894;DHT22;9579;49.488;8.226;2022-09-13T10:18:50;24.60;98.60
18894;DHT22;9579;49.488;8.226;2022-09-13T10:21:39;24.70;98.60
18894;DHT22;9579;49.488;8.226;2022-09-13T10:24:26;24.70;98.70
18894;DHT22;9579;49.488;8.226;2022-09-13T10:27:24;24.80;99.10
18894;DHT22;9579;49.488;8.226;2022-09-13T10:30:29;24.80;98.90
18894;DHT22;9579;49.488;8.226;2022-09-13T10:33:24;24.80;98.80
18894;DHT22;9579;49.488;8.226;2022-09-13T10:36:14;24.70;98.60
18894;DHT22;9579;49.488;8.226;2022-09-13T10:39:06;24.60;98.80
18894;DHT22;9579;49.488;8.226;2022-09-13T10:41:55;24.60;99.40
18894;DHT22;9579;49.488;8.226;2022-09-13T10:44:44;24.70;99.40
18894;DHT22;9579;49.488;8.226;2022-09-13T10:47:37;24.70;99.00
18894;DHT22;9579;49.488;8.226;2022-09-13T10:50:26;24.60;99.40
18894;DHT22;9579;49.488;8.226;2022-09-13T10:53:30;24.50;99.60
18894;DHT22;9579;49.488;8.226;2022-09-13T10:56:22;24.40;99.90
18894;DHT22;9579;49.488;8.226;2022-09-13T10:59:17;24.10;99.90
18894;DHT22;9579;49.488;8.226;2022-09-13T11:02:29;24.00;99.90
18894;DHT22;9579;49.488;8.226;2022-09-13T11:05:22;24.10;99.90
18894;DHT22;9579;49.488;8.226;2022-09-13T11:08:28;24.00;99.90
18894;DHT22;9579;49.488;8.226;2022-09-13T11:11:28;24.10;99.90
18894;DHT22;9579;49.488;8.226;2022-09-13T11:14:32;24.30;99.90
18894;DHT22;9579;49.488;8.226;2022-09-13T11:17:33;24.50;99.90
18894;DHT22;9579;49.488;8.226;2022-09-13T11:20:33;24.70;99.90
18894;DHT22;9579;49.488;8.226;2022-09-13T11:23:42;24.90;99.90
18894;DHT22;9579;49.488;8.226;2022-09-13T11:26:43;25.00;99.90
18894;DHT22;9579;49.488;8.226;2022-09-13T11:29:42;25.10;99.50
18894;DHT22;9579;49.488;8.226;2022-09-13T11:32:44;25.10;99.50
18894;DHT22;9579;49.488;8.226;2022-09-13T11:35:48;25.00;99.80
18894;DHT22;9579;49.488;8.226;2022-09-13T11:38:48;25.10;99.40
18894;DHT22;9579;49.488;8.226;2022-09-13T11:41:44;25.10;98.90
18894;DHT22;9579;49.488;8.226;2022-09-13T11:44:50;25.20;99.10
18894;DHT22;9579;49.488;8.226;2022-09-13T11:47:45;25.30;99.50
18894;DHT22;9579;49.488;8.226;2022-09-13T11:50:43;25.40;99.50
18894;DHT22;9579;49.488;8.226;2022-09-13T11:54:02;25.50;99.00
18894;DHT22;9579;49.488;8.226;2022-09-13T11:56:57;25.60;98.80
18894;DHT22;9579;49.488;8.226;2022-09-13T11:59:48;25.70;98.40
18894;DHT22;9579;49.488;8.226;2022-09-13T12:02:41;25.70;98.10
18894;DHT22;9579;49.488;8.226;2022-09-13T12:05:31;25.80;98.10
18894;DHT22;9579;49.488;8.226;2022-09-13T12:08:21;25.70;98.10
18894;DHT22;9579;49.488;8.226;2022-09-13T12:11:12;25.60;98.50
18894;DHT22;9579;49.488;8.226;2022-09-13T12:14:06;25.50;98.20
18894;DHT22;9579;49.488;8.226;2022-09-13T12:16:58;25.30;98.60
18894;DHT22;9579;49.488;8.226;2022-09-13T12:19:51;25.20;98.70
18894;DHT22;9579;49.488;8.226;2022-09-13T12:22:40;25.00;98.80
18894;DHT22;9579;49.488;8.226;2022-09-13T12:25:36;24.80;99.70
18894;DHT22;9579;49.488;8.226;2022-09-13T12:28:27;24.70;99.90
18894;DHT22;9579;49.488;8.226;2022-09-13T12:31:21;24.70;99.90
18894;DHT22;9579;49.488;8.226;2022-09-13T12:34:12;24.80;99.90
18894;DHT22;9579;49.488;8.226;2022-09-13T12:37:10;24.90;99.90
18894;DHT22;9579;49.488;8.226;2022-09-13T12:43:37;25.00;99.80
18894;DHT22;9579;49.488;8.226;2022-09-13T12:46:44;25.00;99.90
18894;DHT22;9579;49.488;8.226;2022-09-13T12:49:47;25.00;99.90
18894;DHT22;9579;49.488;8.226;2022-09-13T12:52:44;25.10;99.90
18894;DHT22;9579;49.488;8.226;2022-09-13T12:55:47;25.50;99.90
18894;DHT22;9579;49.488;8.226;2022-09-13T12:58:50;25.90;99.50
18894;DHT22;9579;49.488;8.226;2022-09-13T13:01:47;26.30;99.00
18894;DHT22;9579;49.488;8.226;2022-09-13T13:04:35;27.00;98.90
18894;DHT22;9579;49.488;8.226;2022-09-13T13:07:23;27.70;97.30
18894;DHT22;9579;49.488;8.226;2022-09-13T13:10:24;28.00;96.30
18894;DHT22;9579;49.488;8.226;2022-09-13T13:13:13;28.00;96.10
18894;DHT22;9579;49.488;8.226;2022-09-13T13:16:21;28.10;96.20
18894;DHT22;9579;49.488;8.226;2022-09-13T13:25:31;28.60;94.40
18894;DHT22;9579;49.488;8.226;2022-09-13T13:32:10;28.70;93.20
18894;DHT22;9579;49.488;8.226;2022-09-13T13:35:26;28.60;93.40
18894;DHT22;9579;49.488;8.226;2022-09-13T13:38:18;28.50;93.30
18894;DHT22;9579;49.488;8.226;2022-09-13T13:41:37;28.30;92.70
18894;DHT22;9579;49.488;8.226;2022-09-13T13:44:55;28.10;93.40
18894;DHT22;9579;49.488;8.226;2022-09-13T13:48:13;28.00;93.20
18894;DHT22;9579;49.488;8.226;2022-09-13T13:51:34;27.90;93.10
18894;DHT22;9579;49.488;8.226;2022-09-13T13:54:29;27.80;93.00
18894;DHT22;9579;49.488;8.226;2022-09-13T13:57:25;27.80;93.00
18894;DHT22;9579;49.488;8.226;2022-09-13T14:00:15;27.70;93.70
18894;DHT22;9579;49.488;8.226;2022-09-13T14:03:12;27.70;93.70
18894;DHT22;9579;49.488;8.226;2022-09-13T14:06:09;27.70;93.90
18894;DHT22;9579;49.488;8.226;2022-09-13T14:09:04;27.60;94.60
18894;DHT22;9579;49.488;8.226;2022-09-13T14:12:00;27.60;93.80
18894;DHT22;9579;49.488;8.226;2022-09-13T14:15:08;27.70;93.30
18894;DHT22;9579;49.488;8.226;2022-09-13T14:18:39;27.60;93.80
18894;DHT22;9579;49.488;8.226;2022-09-13T14:21:32;27.50;92.70
18894;DHT22;9579;49.488;8.226;2022-09-13T14:24:20;27.40;93.30
18894;DHT22;9579;49.488;8.226;2022-09-13T14:27:14;27.40;93.20
18894;DHT22;9579;49.488;8.226;2022-09-13T14:30:16;27.60;93.50
18894;DHT22;9579;49.488;8.226;2022-09-13T14:33:04;27.90;94.40
18894;DHT22;9579;49.488;8.226;2022-09-13T14:35:58;28.10;93.40
18894;DHT22;9579;49.488;8.226;2022-09-13T14:38:49;28.20;93.50
18894;DHT22;9579;49.488;8.226;2022-09-13T14:41:37;28.20;93.60
18894;DHT22;9579;49.488;8.226;2022-09-13T14:44:25;28.10;93.40
18894;DHT22;9579;49.488;8.226;2022-09-13T14:47:19;28.00;94.20
18894;DHT22;9579;49.488;8.226;2022-09-13T14:50:13;27.90;94.60
18894;DHT22;9579;49.488;8.226;2022-09-13T14:53:03;27.90;93.90
18894;DHT22;9579;49.488;8.226;2022-09-13T14:55:54;27.60;93.80
18894;DHT22;9579;49.488;8.226;2022-09-13T14:58:44;27.40;93.80
18894;DHT22;9579;49.488;8.226;2022-09-13T15:01:34;27.30;94.20
18894;DHT22;9579;49.488;8.226;2022-09-13T15:04:23;27.30;94.10
18894;DHT22;9579;49.488;8.226;2022-09-13T15:07:19;27.10;95.20
18894;DHT22;9579;49.488;8.226;2022-09-13T15:10:19;27.10;95.90
18894;DHT22;9579;49.488;8.226;2022-09-13T15:13:08;27.10;96.50
18894;DHT22;9579;49.488;8.226;2022-09-13T15:15:56;27.20;96.60
18894;DHT22;9579;49.488;8.226;2022-09-13T15:18:43;27.30;94.50
18894;DHT22;9579;49.488;8.226;2022-09-13T15:21:34;27.20;94.60
18894;DHT22;9579;49.488;8.226;2022-09-13T15:24:28;27.10;95.40
18894;DHT22;9579;49.488;8.226;2022-09-13T15:27:19;27.20;95.30
18894;DHT22;9579;49.488;8.226;2022-09-13T15:30:20;27.20;94.20
18894;DHT22;9579;49.488;8.226;2022-09-13T15:33:21;27.30;93.90
18894;DHT22;9579;49.488;8.226;2022-09-13T15:36:26;27.40;94.00
18894;DHT22;9579;49.488;8.226;2022-09-13T15:39:16;27.50;94.40
18894;DHT22;9579;49.488;8.226;2022-09-13T15:42:03;27.60;93.30
18894;DHT22;9579;49.488;8.226;2022-09-13T15:44:50;27.60;93.50
18894;DHT22;9579;49.488;8.226;2022-09-13T15:47:37;27.50;93.40
18894;DHT22;9579;49.488;8.226;2022-09-13T15:50:25;27.50;92.90
18894;DHT22;9579;49.488;8.226;2022-09-13T15:53:13;27.50;93.80
18894;DHT22;9579;49.488;8.226;2022-09-13T15:56:03;27.50;94.10
18894;DHT22;9579;49.488;8.226;2022-09-13T15:58:50;27.50;93.70
18894;DHT22;9579;49.488;8.226;2022-09-13T16:01:37;27.40;94.20
18894;DHT22;9579;49.488;8.226;2022-09-13T16:04:24;27.40;95.00
18894;DHT22;9579;49.488;8.226;2022-09-13T16:07:11;27.20;94.60
18894;DHT22;9579;49.488;8.226;2022-09-13T16:09:59;27.10;94.60
18894;DHT22;9579;49.488;8.226;2022-09-13T16:12:48;26.90;95.20
18894;DHT22;9579;49.488;8.226;2022-09-13T16:15:39;26.80;96.00
18894;DHT22;9579;49.488;8.226;2022-09-13T16:18:30;26.70;96.10
18894;DHT22;9579;49.488;8.226;2022-09-13T16:21:19;26.60;95.50
18894;DHT22;9579;49.488;8.226;2022-09-13T16:24:06;26.40;95.50
18894;DHT22;9579;49.488;8.226;2022-09-13T16:26:53;26.40;95.90
18894;DHT22;9579;49.488;8.226;2022-09-13T16:29:42;26.30;96.20
18894;DHT22;9579;49.488;8.226;2022-09-13T16:32:29;26.20;96.50
18894;DHT22;9579;49.488;8.226;2022-09-13T16:35:16;26.20;97.00
18894;DHT22;9579;49.488;8.226;2022-09-13T16:38:03;26.10;97.60
18894;DHT22;9579;49.488;8.226;2022-09-13T16:40:50;26.00;98.00
18894;DHT22;9579;49.488;8.226;2022-09-13T16:43:38;25.90;98.20
18894;DHT22;9579;49.488;8.226;2022-09-13T16:46:26;25.80;98.50
18894;DHT22;9579;49.488;8.226;2022-09-13T16:49:13;25.70;98.50
18894;DHT22;9579;49.488;8.226;2022-09-13T16:52:00;25.70;98.60
18894;DHT22;9579;49.488;8.226;2022-09-13T16:54:48;25.70;98.80
18894;DHT22;9579;49.488;8.226;2022-09-13T16:57:37;25.70;98.80
18894;DHT22;9579;49.488;8.226;2022-09-13T17:00:24;25.50;99.20
18894;DHT22;9579;49.488;8.226;2022-09-13T17:03:14;25.50;99.30
18894;DHT22;9579;49.488;8.226;2022-09-13T17:06:03;25.30;99.40
18894;DHT22;9579;49.488;8.226;2022-09-13T17:08:52;25.30;99.60
18894;DHT22;9579;49.488;8.226;2022-09-13T17:11:42;25.20;99.90
18894;DHT22;9579;49.488;8.226;2022-09-13T17:14:29;25.10;99.90
18894;DHT22;9579;49.488;8.226;2022-09-13T17:17:17;25.00;99.90
18894;DHT22;9579;49.488;8.226;2022-09-13T17:20:08;24.90;99.90
18894;DHT22;9579;49.488;8.226;2022-09-13T17:22:56;24.80;99.90
18894;DHT22;9579;49.488;8.226;2022-09-13T17:25:46;24.70;99.90
18894;DHT22;9579;49.488;8.226;2022-09-13T17:28:33;24.70;99.90
18894;DHT22;9579;49.488;8.226;2022-09-13T17:31:21;24.60;99.90
18894;DHT22;9579;49.488;8.226;2022-09-13T17:34:08;24.50;99.90
18894;DHT22;9579;49.488;8.226;2022-09-13T17:36:57;24.50;99.90
18894;DHT22;9579;49.488;8.226;2022-09-13T17:39:45;24.50;99.90
18894;DHT22;9579;49.488;8.226;2022-09-13T17:42:33;24.30;99.90
18894;DHT22;9579;49.488;8.226;2022-09-13T17:45:21;24.30;99.90
18894;DHT22;9579;49.488;8.226;2022-09-13T17:48:08;24.20;99.90
18894;DHT22;9579;49.488;8.226;2022-09-13T17:50:59;24.20;99.90
18894;DHT22;9579;49.488;8.226;2022-09-13T17:53:50;24.10;99.90
18894;DHT22;9579;49.488;8.226;2022-09-13T17:56:39;24.00;99.90
18894;DHT22;9579;49.488;8.226;2022-09-13T17:59:27;23.90;99.90
18894;DHT22;9579;49.488;8.226;2022-09-13T18:02:15;23.90;99.90
18894;DHT22;9579;49.488;8.226;2022-09-13T18:05:03;23.80;99.90
18894;DHT22;9579;49.488;8.226;2022-09-13T18:07:50;23.80;99.90
18894;DHT22;9579;49.488;8.226;2022-09-13T18:10:38;23.80;99.90
18894;DHT22;9579;49.488;8.226;2022-09-13T18:13:26;23.70;99.90
18894;DHT22;9579;49.488;8.226;2022-09-13T18:16:16;23.70;99.90
18894;DHT22;9579;49.488;8.226;2022-09-13T18:19:03;23.60;99.90
18894;DHT22;9579;49.488;8.226;2022-09-13T18:21:50;23.60;99.90
18894;DHT22;9579;49.488;8.226;2022-09-13T18:24:37;23.40;99.90
18894;DHT22;9579;49.488;8.226;2022-09-13T18:27:26;23.50;99.90
18894;DHT22;9579;49.488;8.226;2022-09-13T18:30:13;23.60;99.90
18894;DHT22;9579;49.488;8.226;2022-09-13T18:33:00;23.30;99.90
18894;DHT22;9579;49.488;8.226;2022-09-13T18:36:00;23.30;99.90
18894;DHT22;9579;49.488;8.226;2022-09-13T18:38:48;23.20;99.90
18894;DHT22;9579;49.488;8.226;2022-09-13T18:41:37;23.20;99.90
18894;DHT22;9579;49.488;8.226;2022-09-13T18:44:26;23.20;99.90
18894;DHT22;9579;49.488;8.226;2022-09-13T18:47:15;23.20;99.90
18894;DHT22;9579;49.488;8.226;2022-09-13T18:50:02;23.00;99.90
18894;DHT22;9579;49.488;8.226;2022-09-13T18:52:49;23.00;99.90
18894;DHT22;9579;49.488;8.226;2022-09-13T18:55:36;23.00;99.90
18894;DHT22;9579;49.488;8.226;2022-09-13T18:58:23;22.90;99.90
18894;DHT22;9579;49.488;8.226;2022-09-13T19:01:14;22.90;99.90
18894;DHT22;9579;49.488;8.226;2022-09-13T19:04:03;22.90;99.90
18894;DHT22;9579;49.488;8.226;2022-09-13T19:06:52;22.90;99.90
18894;DHT22;9579;49.488;8.226;2022-09-13T19:09:42;23.00;99.90
18894;DHT22;9579;49.488;8.226;2022-09-13T19:12:29;22.80;99.90
18894;DHT22;9579;49.488;8.226;2022-09-13T19:15:16;22.80;99.90
18894;DHT22;9579;49.488;8.226;2022-09-13T19:18:05;22.80;99.90
18894;DHT22;9579;49.488;8.226;2022-09-13T19:20:53;22.80;99.90
18894;DHT22;9579;49.488;8.226;2022-09-13T19:23:47;22.80;99.90
18894;DHT22;9579;49.488;8.226;2022-09-13T19:26:36;22.80;99.90
18894;DHT22;9579;49.488;8.226;2022-09-13T19:29:23;22.70;99.90
18894;DHT22;9579;49.488;8.226;2022-09-13T19:32:11;22.60;99.90
18894;DHT22;9579;49.488;8.226;2022-09-13T19:34:59;22.70;99.90
18894;DHT22;9579;49.488;8.226;2022-09-13T19:37:46;22.60;99.90
18894;DHT22;9579;49.488;8.226;2022-09-13T19:40:33;22.60;99.90
18894;DHT22;9579;49.488;8.226;2022-09-13T19:43:23;22.60;99.90
18894;DHT22;9579;49.488;8.226;2022-09-13T19:46:11;22.60;99.90
18894;DHT22;9579;49.488;8.226;2022-09-13T19:49:00;22.40;99.90
18894;DHT22;9579;49.488;8.226;2022-09-13T19:51:48;22.60;99.90
18894;DHT22;9579;49.488;8.226;2022-09-13T19:54:35;22.40;99.90
18894;DHT22;9579;49.488;8.226;2022-09-13T19:57:23;22.50;99.90
18894;DHT22;9579;49.488;8.226;2022-09-13T20:00:11;22.50;99.90
18894;DHT22;9579;49.488;8.226;2022-09-13T20:02:58;22.50;99.90
18894;DHT22;9579;49.488;8.226;2022-09-13T20:05:45;22.60;99.90
18894;DHT22;9579;49.488;8.226;2022-09-13T20:08:34;22.60;99.90
18894;DHT22;9579;49.488;8.226;2022-09-13T20:11:21;22.60;99.90
18894;DHT22;9579;49.488;8.226;2022-09-13T20:14:11;22.60;99.90
18894;DHT22;9579;49.488;8.226;2022-09-13T20:16:59;22.40;99.90
18894;DHT22;9579;49.488;8.226;2022-09-13T20:19:47;22.50;99.90
18894;DHT22;9579;49.488;8.226;2022-09-13T20:22:34;22.40;99.90
18894;DHT22;9579;49.488;8.226;2022-09-13T20:25:22;22.40;99.90
18894;DHT22;9579;49.488;8.226;2022-09-13T20:28:09;22.40;99.90
18894;DHT22;9579;49.488;8.226;2022-09-13T20:30:58;22.40;99.90
18894;DHT22;9579;49.488;8.226;2022-09-13T20:33:46;22.30;99.90
18894;DHT22;9579;49.488;8.226;2022-09-13T20:36:35;22.30;99.90
18894;DHT22;9579;49.488;8.226;2022-09-13T20:39:23;22.40;99.90
18894;DHT22;9579;49.488;8.226;2022-09-13T20:42:11;22.30;99.90
18894;DHT22;9579;49.488;8.226;2022-09-13T20:44:58;22.30;99.90
18894;DHT22;9579;49.488;8.226;2022-09-13T20:47:45;22.30;99.90
18894;DHT22;9579;49.488;8.226;2022-09-13T20:50:32;22.30;99.90
18894;DHT22;9579;49.488;8.226;2022-09-13T20:53:19;22.30;99.90
18894;DHT22;9579;49.488;8.226;2022-09-13T20:56:12;22.20;99.90
18894;DHT22;9579;49.488;8.226;2022-09-13T20:59:01;22.20;99.90
18894;DHT22;9579;49.488;8.226;2022-09-13T21:01:48;22.20;99.90
18894;DHT22;9579;49.488;8.226;2022-09-13T21:04:35;22.20;99.90
18894;DHT22;9579;49.488;8.226;2022-09-13T21:07:22;22.10;99.90
18894;DHT22;9579;49.488;8.226;2022-09-13T21:10:41;22.00;99.90
18894;DHT22;9579;49.488;8.226;2022-09-13T21:13:28;22.10;99.90
18894;DHT22;9579;49.488;8.226;2022-09-13T21:16:19;22.00;99.90
18894;DHT22;9579;49.488;8.226;2022-09-13T21:19:06;21.90;99.90
18894;DHT22;9579;49.488;8.226;2022-09-13T21:21:53;22.00;99.90
18894;DHT22;9579;49.488;8.226;2022-09-13T21:24:40;21.90;99.90
18894;DHT22;9579;49.488;8.226;2022-09-13T21:27:27;21.90;99.90
18894;DHT22;9579;49.488;8.226;2022-09-13T21:30:15;21.80;99.90
18894;DHT22;9579;49.488;8.226;2022-09-13T21:33:03;21.80;99.90
18894;DHT22;9579;49.488;8.226;2022-09-13T21:35:50;21.70;99.90
18894;DHT22;9579;49.488;8.226;2022-09-13T21:38:38;21.70;99.90
18894;DHT22;9579;49.488;8.226;2022-09-13T21:41:26;21.70;99.90
18894;DHT22;9579;49.488;8.226;2022-09-13T21:44:14;21.60;99.90
18894;DHT22;9579;49.488;8.226;2022-09-13T21:47:01;21.60;99.90
18894;DHT22;9579;49.488;8.226;2022-09-13T21:49:49;21.60;99.90
18894;DHT22;9579;49.488;8.226;2022-09-13T21:52:37;21.60;99.90
18894;DHT22;9579;49.488;8.226;2022-09-13T21:55:25;21.70;99.90
18894;DHT22;9579;49.488;8.226;2022-09-13T21:58:12;21.70;99.90
18894;DHT22;9579;49.488;8.226;2022-09-13T22:01:04;21.60;99.90
18894;DHT22;9579;49.488;8.226;2022-09-13T22:03:51;21.60;99.90
18894;DHT22;9579;49.488;8.226;2022-09-13T22:06:40;21.50;99.90
18894;DHT22;9579;49.488;8.226;2022-09-13T22:09:27;21.50;99.90
18894;DHT22;9579;49.488;8.226;2022-09-13T22:12:14;21.40;99.90
18894;DHT22;9579;49.488;8.226;2022-09-13T22:15:01;21.40;99.90
18894;DHT22;9579;49.488;8.226;2022-09-13T22:17:48;21.40;99.90
18894;DHT22;9579;49.488;8.226;2022-09-13T22:20:35;21.40;99.90
18894;DHT22;9579;49.488;8.226;2022-09-13T22:23:23;21.40;99.90
18894;DHT22;9579;49.488;8.226;2022-09-13T22:26:11;21.50;99.90
18894;DHT22;9579;49.488;8.226;2022-09-13T22:28:59;21.50;99.90
